Time;durP1;ratioP1;P1;durP2;ratioP2;P2;SDS_P1;SDS_P2;PMS_P1;PMS_P2;Temp;Humidity;BMP_temperature;BMP_pressure;BME280_temperature;BME280_humidity;BME280_pressure;Samples;Min_cycle;Max_cycle;Signal;HPM_P1;HPM_P2
2023/07/16 00:00:53;;;;;;;3.35;1.05;;;17.60;99.90;;;;;;5036584;28;20047;-71
2023/07/16 00:03:19;;;;;;;4.53;1.20;;;17.50;99.90;;;;;;5058077;28;20039;-71
2023/07/16 00:05:48;;;;;;;3.58;1.35;;;17.50;99.90;;;;;;5057904;28;20402;-71
2023/07/16 00:08:15;;;;;;;7.07;1.40;;;17.40;99.90;;;;;;5032491;28;20032;-71
2023/07/16 00:10:41;;;;;;;4.45;1.20;;;17.30;99.90;;;;;;5043929;28;21791;-71
2023/07/16 00:13:08;;;;;;;4.45;1.77;;;17.30;99.90;;;;;;5045932;28;20047;-71
2023/07/16 00:15:34;;;;;;;3.55;1.58;;;17.20;99.90;;;;;;5045363;28;20390;-71
2023/07/16 00:18:00;;;;;;;3.47;1.23;;;17.20;99.90;;;;;;5042845;28;20040;-71
2023/07/16 00:20:27;;;;;;;5.03;1.23;;;17.10;99.90;;;;;;5038418;28;20032;-71
2023/07/16 00:22:54;;;;;;;3.58;1.10;;;17.10;99.90;;;;;;5034081;28;20050;-71
2023/07/16 00:25:20;;;;;;;4.25;1.27;;;17.10;99.90;;;;;;5038250;28;20066;-72
2023/07/16 00:27:47;;;;;;;3.83;1.42;;;17.20;99.90;;;;;;5053540;28;20051;-71
2023/07/16 00:30:13;;;;;;;5.00;1.00;;;17.20;99.90;;;;;;5032914;28;20043;-71
2023/07/16 00:32:39;;;;;;;2.75;1.05;;;17.20;99.90;;;;;;5027946;28;20035;-71
2023/07/16 00:35:06;;;;;;;4.25;1.73;;;17.20;99.90;;;;;;5043828;28;20032;-71
2023/07/16 00:37:34;;;;;;;3.13;1.40;;;17.20;99.90;;;;;;5042940;28;20051;-72
2023/07/16 00:40:00;;;;;;;5.57;1.70;;;17.20;99.90;;;;;;5034029;28;20047;-72
2023/07/16 00:42:26;;;;;;;3.50;1.08;;;17.20;99.90;;;;;;5049972;28;20370;-72
2023/07/16 00:44:53;;;;;;;4.18;1.73;;;17.20;99.90;;;;;;5037962;28;20048;-72
2023/07/16 00:47:20;;;;;;;4.50;1.42;;;17.10;99.90;;;;;;5041856;28;20032;-72
2023/07/16 00:49:46;;;;;;;4.13;1.40;;;17.10;99.90;;;;;;5037515;28;20722;-72
2023/07/16 00:52:18;;;;;;;4.35;1.10;;;17.10;99.90;;;;;;5043833;28;20032;-72
2023/07/16 00:54:44;;;;;;;5.18;1.80;;;17.10;99.90;;;;;;5062198;28;20043;-72
2023/07/16 00:57:11;;;;;;;4.18;1.92;;;17.10;99.90;;;;;;5045359;28;21165;-72
2023/07/16 00:59:37;;;;;;;5.97;2.03;;;17.00;99.90;;;;;;5033576;28;20607;-72
2023/07/16 01:02:04;;;;;;;4.70;1.83;;;17.00;99.90;;;;;;5014150;28;20051;-72
2023/07/16 01:04:30;;;;;;;3.65;1.60;;;17.00;99.90;;;;;;5057113;28;20036;-72
2023/07/16 01:07:01;;;;;;;5.38;1.80;;;17.00;99.90;;;;;;5040948;28;20035;-72
2023/07/16 01:09:28;;;;;;;7.50;2.08;;;17.00;99.90;;;;;;5011144;28;20044;-72
2023/07/16 01:11:56;;;;;;;5.65;1.80;;;17.00;99.90;;;;;;5047181;28;20398;-72
2023/07/16 01:14:23;;;;;;;5.18;2.17;;;17.00;99.90;;;;;;5029771;28;20655;-72
2023/07/16 01:16:51;;;;;;;4.80;1.65;;;17.00;99.90;;;;;;5047775;28;20043;-72
2023/07/16 01:19:17;;;;;;;4.47;1.80;;;17.00;99.90;;;;;;5020974;28;20368;-72
2023/07/16 01:22:08;;;;;;;6.05;2.10;;;17.00;99.90;;;;;;5048129;28;20391;-72
2023/07/16 01:25:03;;;;;;;5.97;1.95;;;17.00;99.90;;;;;;5038035;28;20509;-72
2023/07/16 01:27:51;;;;;;;4.82;2.03;;;17.00;99.90;;;;;;5056915;28;20580;-72
2023/07/16 01:30:19;;;;;;;4.38;1.58;;;16.90;99.90;;;;;;5043379;28;20039;-72
2023/07/16 01:32:47;;;;;;;6.00;2.85;;;16.80;99.90;;;;;;5030805;28;20038;-72
2023/07/16 01:35:13;;;;;;;4.55;1.48;;;16.80;99.90;;;;;;5049772;28;20032;-72
2023/07/16 01:37:41;;;;;;;4.40;1.85;;;16.70;99.90;;;;;;5047237;28;20511;-72
2023/07/16 01:40:09;;;;;;;5.15;1.65;;;16.60;99.90;;;;;;5037120;28;20028;-72
2023/07/16 01:42:35;;;;;;;6.70;1.67;;;16.50;99.90;;;;;;5047221;28;20482;-72
2023/07/16 01:45:03;;;;;;;5.55;1.70;;;16.40;99.90;;;;;;5056140;28;20040;-72
2023/07/16 01:48:03;;;;;;;6.10;1.40;;;16.40;99.90;;;;;;5040935;28;20033;-72
2023/07/16 01:50:29;;;;;;;5.60;1.60;;;16.30;99.90;;;;;;5011357;28;20027;-72
2023/07/16 01:52:56;;;;;;;5.30;1.63;;;16.30;99.90;;;;;;5046107;28;20114;-72
2023/07/16 01:55:24;;;;;;;8.38;2.35;;;16.30;99.90;;;;;;5049155;28;20039;-72
2023/07/16 01:57:51;;;;;;;5.43;1.88;;;16.30;99.90;;;;;;5046254;28;20507;-72
2023/07/16 02:00:18;;;;;;;7.18;1.70;;;16.20;99.90;;;;;;5038092;28;22723;-72
2023/07/16 02:02:50;;;;;;;4.75;1.60;;;16.20;99.90;;;;;;5048867;28;20028;-72
2023/07/16 02:05:17;;;;;;;4.15;1.50;;;16.20;99.90;;;;;;5058135;28;20047;-72
2023/07/16 02:07:43;;;;;;;4.82;1.65;;;16.10;99.90;;;;;;5025275;28;20043;-72
2023/07/16 02:10:09;;;;;;;7.85;2.15;;;16.10;99.90;;;;;;5042373;28;20067;-72
2023/07/16 02:12:36;;;;;;;8.73;2.17;;;16.00;99.90;;;;;;5031136;28;20035;-72
2023/07/16 02:15:02;;;;;;;5.45;2.40;;;16.00;99.90;;;;;;5048692;28;20036;-73
2023/07/16 02:17:30;;;;;;;4.85;2.22;;;16.00;99.90;;;;;;5047950;28;20028;-73
2023/07/16 02:19:57;;;;;;;5.35;1.73;;;16.00;99.90;;;;;;5036655;28;20043;-72
2023/07/16 02:22:23;;;;;;;6.70;1.30;;;16.00;99.90;;;;;;5047174;28;20515;-73
2023/07/16 02:24:49;;;;;;;4.68;1.60;;;15.90;99.90;;;;;;5035794;28;20032;-73
2023/07/16 02:27:16;;;;;;;5.75;1.45;;;16.00;99.90;;;;;;5055835;28;20043;-73
2023/07/16 02:29:42;;;;;;;6.25;1.77;;;16.00;99.90;;;;;;5044749;28;20047;-72
2023/07/16 02:32:09;;;;;;;7.05;2.40;;;15.90;99.90;;;;;;5064371;28;20482;-73
2023/07/16 02:34:37;;;;;;;7.78;2.78;;;15.90;99.90;;;;;;5064935;28;20032;-73
2023/07/16 02:37:03;;;;;;;5.35;2.22;;;15.90;99.90;;;;;;5047420;28;20044;-73
2023/07/16 02:39:30;;;;;;;6.30;1.60;;;15.90;99.90;;;;;;5055872;28;20047;-73
2023/07/16 02:41:56;;;;;;;7.97;1.80;;;15.90;99.90;;;;;;5033903;28;20036;-72
2023/07/16 02:44:24;;;;;;;6.55;2.85;;;15.80;99.90;;;;;;5046394;28;20072;-73
2023/07/16 02:46:51;;;;;;;7.65;1.90;;;15.80;99.90;;;;;;5071607;28;20032;-73
2023/07/16 02:49:17;;;;;;;4.53;1.83;;;15.70;99.90;;;;;;5048370;28;21311;-73
2023/07/16 02:51:43;;;;;;;8.30;1.55;;;15.70;99.90;;;;;;5060239;28;20039;-73
2023/07/16 02:54:10;;;;;;;4.45;1.65;;;15.70;99.90;;;;;;5053190;28;20036;-73
2023/07/16 02:56:36;;;;;;;3.72;1.10;;;15.70;99.90;;;;;;5052907;28;20040;-73
2023/07/16 02:59:02;;;;;;;5.15;1.40;;;15.60;99.90;;;;;;5024827;28;20043;-73
2023/07/16 03:01:29;;;;;;;3.90;1.58;;;15.60;99.90;;;;;;5051032;28;20031;-73
2023/07/16 03:03:56;;;;;;;5.90;1.70;;;15.60;99.90;;;;;;5051566;28;20028;-73
2023/07/16 03:06:23;;;;;;;5.05;1.65;;;15.50;99.90;;;;;;5068050;28;20044;-73
2023/07/16 03:08:51;;;;;;;5.70;1.23;;;15.50;99.90;;;;;;5031951;28;20039;-73
2023/07/16 03:11:18;;;;;;;4.68;1.50;;;15.50;99.90;;;;;;5062164;28;20028;-73
2023/07/16 03:13:45;;;;;;;3.42;1.20;;;15.50;99.90;;;;;;5024859;28;20036;-73
2023/07/16 03:16:11;;;;;;;4.65;1.50;;;15.50;99.90;;;;;;5021304;28;20032;-73
2023/07/16 03:18:37;;;;;;;4.63;1.50;;;15.50;99.90;;;;;;5040780;28;20034;-72
2023/07/16 03:21:04;;;;;;;5.22;1.23;;;15.50;99.90;;;;;;5049680;28;20056;-73
2023/07/16 03:23:30;;;;;;;6.40;1.80;;;15.50;99.90;;;;;;5049409;28;20032;-73
2023/07/16 03:25:56;;;;;;;5.53;1.40;;;15.50;99.90;;;;;;5052959;28;20040;-73
2023/07/16 03:28:23;;;;;;;4.40;1.42;;;15.50;99.90;;;;;;5049506;28;20514;-73
2023/07/16 03:30:50;;;;;;;6.30;1.38;;;15.50;99.90;;;;;;5075639;28;20039;-73
2023/07/16 03:33:17;;;;;;;7.78;2.20;;;15.50;99.90;;;;;;5061117;28;20040;-73
2023/07/16 03:35:44;;;;;;;6.03;2.15;;;15.60;99.90;;;;;;5053654;28;20059;-73
2023/07/16 03:38:11;;;;;;;5.88;2.15;;;15.60;99.90;;;;;;5045748;28;20501;-73
2023/07/16 03:40:38;;;;;;;8.02;2.20;;;15.60;99.90;;;;;;5045500;28;20020;-72
2023/07/16 03:43:04;;;;;;;5.70;2.60;;;15.70;99.90;;;;;;5050265;28;20036;-72
2023/07/16 03:45:31;;;;;;;7.63;2.80;;;15.70;99.90;;;;;;5034459;28;20410;-73
2023/07/16 03:47:57;;;;;;;6.85;2.47;;;15.70;99.90;;;;;;5018874;28;20047;-73
2023/07/16 03:50:24;;;;;;;6.28;3.15;;;15.80;99.90;;;;;;5047886;28;20483;-73
2023/07/16 03:52:50;;;;;;;8.48;2.97;;;15.80;99.90;;;;;;5043767;28;20027;-73
2023/07/16 03:55:17;;;;;;;8.00;2.70;;;15.80;99.90;;;;;;5058611;28;20039;-73
2023/07/16 03:57:43;;;;;;;4.68;2.35;;;15.80;99.90;;;;;;5051104;28;20816;-73
2023/07/16 04:00:10;;;;;;;4.68;2.20;;;15.80;99.90;;;;;;5041611;28;20035;-73
2023/07/16 04:02:45;;;;;;;5.55;2.20;;;15.80;99.90;;;;;;5019305;28;20043;-73
2023/07/16 04:05:17;;;;;;;8.90;2.75;;;15.80;99.90;;;;;;5048829;28;22785;-73
2023/07/16 04:07:43;;;;;;;6.13;2.17;;;15.90;99.90;;;;;;5033702;28;20035;-73
2023/07/16 04:10:10;;;;;;;5.07;2.38;;;15.90;99.90;;;;;;5042333;28;20051;-73
2023/07/16 04:12:36;;;;;;;9.00;2.88;;;15.90;99.90;;;;;;5047728;28;20035;-72
2023/07/16 04:15:09;;;;;;;4.72;2.25;;;15.90;99.90;;;;;;5058289;28;20494;-73
2023/07/16 04:17:36;;;;;;;6.13;2.50;;;15.90;99.90;;;;;;5049919;28;20055;-73
2023/07/16 04:20:03;;;;;;;8.32;2.58;;;16.00;99.90;;;;;;5041586;28;20032;-73
2023/07/16 04:22:30;;;;;;;8.77;2.10;;;16.00;99.90;;;;;;5048459;28;20043;-73
2023/07/16 04:24:56;;;;;;;6.13;2.08;;;16.00;99.90;;;;;;5031949;28;20059;-73
2023/07/16 04:27:23;;;;;;;5.15;2.20;;;16.10;99.90;;;;;;5050956;28;20032;-73
2023/07/16 04:29:49;;;;;;;5.85;1.65;;;16.10;99.90;;;;;;5040711;28;20036;-73
2023/07/16 04:32:15;;;;;;;5.68;1.90;;;16.20;99.90;;;;;;5055960;28;20051;-73
2023/07/16 04:34:42;;;;;;;3.83;1.92;;;16.20;99.90;;;;;;5044452;28;20036;-73
2023/07/16 04:37:08;;;;;;;4.80;1.90;;;16.30;99.90;;;;;;5056849;28;20403;-72
2023/07/16 04:39:34;;;;;;;7.10;2.42;;;16.30;99.90;;;;;;5040337;28;20044;-73
2023/07/16 04:42:00;;;;;;;6.07;2.40;;;16.30;99.90;;;;;;5050655;28;20427;-73
2023/07/16 04:44:27;;;;;;;10.40;3.00;;;16.40;99.90;;;;;;5049075;28;20052;-72
2023/07/16 04:46:53;;;;;;;8.30;3.08;;;16.50;99.90;;;;;;5048583;28;20036;-73
2023/07/16 04:49:19;;;;;;;8.75;2.85;;;16.50;99.90;;;;;;5040894;28;20623;-73
2023/07/16 04:51:46;;;;;;;10.32;2.97;;;16.60;99.90;;;;;;5056544;28;20422;-73
2023/07/16 04:54:12;;;;;;;5.88;2.72;;;16.60;99.90;;;;;;5061433;28;20039;-72
2023/07/16 04:56:38;;;;;;;7.30;3.53;;;16.70;99.90;;;;;;5039833;28;20035;-73
2023/07/16 04:59:05;;;;;;;7.72;3.28;;;16.70;99.90;;;;;;5038984;28;20024;-73
2023/07/16 05:01:31;;;;;;;6.22;2.97;;;16.80;99.90;;;;;;5051421;28;21364;-73
2023/07/16 05:03:57;;;;;;;5.75;2.97;;;17.00;99.90;;;;;;5051425;28;20031;-73
2023/07/16 05:06:23;;;;;;;5.45;2.70;;;17.10;99.90;;;;;;5031894;28;20491;-73
2023/07/16 05:08:50;;;;;;;6.10;2.88;;;17.20;99.90;;;;;;5039115;28;20036;-73
2023/07/16 05:11:16;;;;;;;6.07;3.28;;;17.20;99.90;;;;;;5051527;28;20541;-72
2023/07/16 05:13:42;;;;;;;9.65;3.30;;;17.10;99.90;;;;;;5041540;28;23819;-72
2023/07/16 05:16:09;;;;;;;7.30;3.60;;;17.00;99.90;;;;;;5057487;28;20537;-72
2023/07/16 05:18:35;;;;;;;8.48;3.03;;;16.90;99.90;;;;;;5041463;28;20036;-72
2023/07/16 05:21:02;;;;;;;6.80;2.95;;;16.80;99.90;;;;;;5049222;28;20036;-72
2023/07/16 05:23:28;;;;;;;7.05;2.97;;;16.80;99.90;;;;;;5049634;28;20039;-72
2023/07/16 05:25:54;;;;;;;8.43;4.15;;;16.80;99.90;;;;;;5048592;28;20036;-72
2023/07/16 05:28:20;;;;;;;7.75;2.60;;;17.00;99.90;;;;;;5043028;28;20399;-72
2023/07/16 05:30:47;;;;;;;7.95;3.45;;;17.10;99.90;;;;;;5046338;28;20039;-72
2023/07/16 05:33:13;;;;;;;5.43;2.75;;;17.20;99.90;;;;;;5058681;28;20044;-72
2023/07/16 05:35:40;;;;;;;6.60;2.97;;;17.30;99.90;;;;;;5044350;28;20051;-72
2023/07/16 05:38:07;;;;;;;6.22;2.70;;;17.40;99.90;;;;;;5051915;28;20946;-73
2023/07/16 05:40:33;;;;;;;7.70;2.85;;;17.50;99.90;;;;;;5048377;28;20086;-78
2023/07/16 05:42:59;;;;;;;7.57;3.95;;;17.70;99.90;;;;;;5048173;28;20039;-75
2023/07/16 05:45:25;;;;;;;9.30;3.35;;;17.80;99.90;;;;;;5050807;28;20040;-74
2023/07/16 05:47:52;;;;;;;5.93;3.50;;;17.90;99.90;;;;;;5049940;28;20032;-76
2023/07/16 05:50:18;;;;;;;10.00;4.55;;;18.00;99.90;;;;;;5022967;28;20036;-76
2023/07/16 05:52:47;;;;;;;7.22;3.20;;;18.10;99.90;;;;;;5056180;28;20032;-72
2023/07/16 05:55:14;;;;;;;8.80;3.60;;;18.10;99.90;;;;;;5090084;27;20032;-73
2023/07/16 05:57:41;;;;;;;7.80;3.13;;;18.10;99.90;;;;;;5056726;28;20407;-72
2023/07/16 06:00:08;;;;;;;6.70;3.25;;;18.10;99.90;;;;;;5020259;28;20052;-72
2023/07/16 06:02:38;;;;;;;7.07;3.55;;;18.20;99.90;;;;;;5047873;28;20024;-73
2023/07/16 06:05:05;;;;;;;6.30;3.10;;;18.20;99.90;;;;;;5028755;28;20055;-73
2023/07/16 06:07:31;;;;;;;7.63;3.28;;;18.30;99.90;;;;;;5064376;28;20098;-73
2023/07/16 06:09:58;;;;;;;12.63;3.30;;;18.40;99.90;;;;;;5039713;28;20028;-73
2023/07/16 06:12:25;;;;;;;10.63;3.88;;;18.50;99.90;;;;;;5055123;28;20028;-73
2023/07/16 06:14:51;;;;;;;8.55;3.70;;;18.70;99.90;;;;;;5055844;28;20491;-73
2023/07/16 06:17:17;;;;;;;9.95;3.35;;;18.80;99.90;;;;;;5038581;28;20036;-73
2023/07/16 06:19:44;;;;;;;6.07;3.17;;;19.10;99.90;;;;;;5036117;28;20530;-73
2023/07/16 06:22:10;;;;;;;8.98;3.72;;;19.40;99.90;;;;;;5032411;28;20028;-72
2023/07/16 06:24:36;;;;;;;12.07;3.75;;;19.70;99.90;;;;;;5032811;28;20559;-72
2023/07/16 06:27:03;;;;;;;6.85;3.47;;;19.80;99.90;;;;;;5054147;28;20376;-72
2023/07/16 06:29:29;;;;;;;7.55;3.63;;;19.90;99.90;;;;;;5044318;28;20035;-73
2023/07/16 06:31:57;;;;;;;9.32;3.53;;;19.90;99.90;;;;;;5056922;28;20051;-72
2023/07/16 06:34:27;;;;;;;7.22;4.22;;;20.00;99.90;;;;;;5061652;28;20036;-71
2023/07/16 06:36:53;;;;;;;5.70;2.88;;;19.90;99.90;;;;;;5061725;28;20406;-71
2023/07/16 06:39:20;;;;;;;6.97;3.38;;;19.90;99.90;;;;;;5044589;28;20032;-71
2023/07/16 06:41:46;;;;;;;5.18;3.35;;;19.90;99.90;;;;;;5049322;28;20028;-72
2023/07/16 06:44:14;;;;;;;5.40;3.00;;;19.90;99.90;;;;;;5050695;28;20056;-71
2023/07/16 06:46:40;;;;;;;7.93;4.28;;;20.00;99.90;;;;;;5050804;28;20544;-71
2023/07/16 06:49:07;;;;;;;7.13;3.55;;;20.20;99.90;;;;;;5041459;28;20032;-71
2023/07/16 06:51:34;;;;;;;10.90;3.80;;;20.40;99.90;;;;;;5050953;28;20603;-72
2023/07/16 06:54:00;;;;;;;10.30;4.18;;;20.60;99.90;;;;;;5057640;28;20051;-72
2023/07/16 06:56:26;;;;;;;6.70;2.97;;;20.60;99.90;;;;;;5056690;28;20039;-71
2023/07/16 06:58:53;;;;;;;10.50;3.90;;;20.60;99.90;;;;;;5046645;28;20036;-72
2023/07/16 07:01:19;;;;;;;10.05;4.43;;;20.60;99.90;;;;;;5052254;28;20106;-72
2023/07/16 07:03:45;;;;;;;9.70;3.92;;;20.70;99.90;;;;;;5052848;28;20031;-75
2023/07/16 07:06:11;;;;;;;6.32;2.92;;;20.60;99.90;;;;;;5035776;28;20047;-71
2023/07/16 07:08:38;;;;;;;10.13;4.18;;;20.70;99.90;;;;;;5042123;28;20036;-71
2023/07/16 07:11:04;;;;;;;8.88;4.18;;;20.70;99.90;;;;;;5034052;28;20028;-72
2023/07/16 07:13:31;;;;;;;8.90;4.60;;;20.80;99.90;;;;;;5058399;28;20032;-72
2023/07/16 07:15:57;;;;;;;7.47;3.83;;;20.80;99.90;;;;;;5058072;28;20028;-72
2023/07/16 07:18:23;;;;;;;6.63;3.33;;;20.90;99.90;;;;;;5048350;28;20052;-72
2023/07/16 07:20:51;;;;;;;6.38;3.20;;;21.00;99.90;;;;;;5048863;28;20505;-72
2023/07/16 07:23:17;;;;;;;8.20;3.67;;;21.10;99.90;;;;;;5049932;28;20040;-72
2023/07/16 07:25:47;;;;;;;6.65;3.35;;;21.10;99.90;;;;;;5061515;28;20024;-73
2023/07/16 07:28:14;;;;;;;15.15;5.32;;;21.20;99.90;;;;;;5044200;28;21107;-72
2023/07/16 07:30:40;;;;;;;8.13;4.00;;;21.20;99.90;;;;;;5032176;28;20036;-72
2023/07/16 07:33:06;;;;;;;12.43;3.85;;;21.20;99.90;;;;;;5058140;28;20036;-73
2023/07/16 07:35:33;;;;;;;10.13;4.10;;;21.30;99.90;;;;;;5059058;28;20047;-72
2023/07/16 07:37:59;;;;;;;8.30;3.97;;;21.30;99.90;;;;;;5038093;28;20039;-72
2023/07/16 07:40:26;;;;;;;11.10;4.30;;;21.30;99.90;;;;;;5023933;28;20233;-72
2023/07/16 07:42:53;;;;;;;7.25;3.58;;;21.40;99.90;;;;;;5049232;28;20725;-72
2023/07/16 07:45:19;;;;;;;7.00;3.90;;;21.40;99.90;;;;;;5049271;28;20051;-72
2023/07/16 07:47:45;;;;;;;9.98;4.35;;;21.30;99.90;;;;;;5048691;28;20024;-72
2023/07/16 07:50:11;;;;;;;7.57;3.90;;;21.30;99.90;;;;;;5035040;28;20040;-71
2023/07/16 07:52:38;;;;;;;8.02;3.35;;;21.30;99.90;;;;;;5034691;28;20062;-72
2023/07/16 07:55:04;;;;;;;9.02;3.88;;;21.30;99.90;;;;;;5056224;28;20028;-73
2023/07/16 07:57:31;;;;;;;6.70;3.28;;;21.50;99.90;;;;;;5058680;28;20035;-73
2023/07/16 07:59:57;;;;;;;7.75;3.75;;;21.50;99.90;;;;;;5041346;28;20518;-73
2023/07/16 08:02:24;;;;;;;10.90;4.10;;;21.70;99.90;;;;;;5034395;28;20036;-74
2023/07/16 08:04:54;;;;;;;5.07;3.20;;;21.90;99.90;;;;;;5053149;28;20915;-73
2023/07/16 08:07:25;;;;;;;9.52;4.10;;;22.20;99.90;;;;;;5051803;28;20036;-70
2023/07/16 08:09:52;;;;;;;7.90;3.28;;;22.20;99.90;;;;;;5045642;28;21426;-72
2023/07/16 08:12:18;;;;;;;11.68;3.80;;;22.20;99.90;;;;;;5050754;28;20032;-72
2023/07/16 08:14:44;;;;;;;8.63;3.78;;;22.20;99.90;;;;;;5057740;28;20378;-71
2023/07/16 08:17:11;;;;;;;8.57;3.50;;;22.20;99.90;;;;;;5059416;28;20036;-72
2023/07/16 08:19:38;;;;;;;8.20;3.58;;;22.40;99.90;;;;;;5045093;28;20036;-71
2023/07/16 08:22:05;;;;;;;5.72;3.75;;;22.40;99.90;;;;;;5047470;28;20044;-71
2023/07/16 08:24:31;;;;;;;6.43;3.38;;;22.30;99.90;;;;;;5032578;28;20046;-72
2023/07/16 08:26:57;;;;;;;7.68;3.83;;;22.40;99.90;;;;;;5049201;28;20024;-72
2023/07/16 08:29:23;;;;;;;7.75;2.95;;;22.60;99.90;;;;;;5005995;28;20717;-72
2023/07/16 08:31:50;;;;;;;7.63;3.30;;;22.80;99.90;;;;;;5047875;28;21548;-72
2023/07/16 08:34:17;;;;;;;7.85;3.38;;;22.90;99.90;;;;;;5051850;28;20036;-70
2023/07/16 08:36:44;;;;;;;9.55;3.15;;;23.10;99.90;;;;;;5041281;28;20446;-71
2023/07/16 08:39:10;;;;;;;6.18;3.42;;;23.10;99.90;;;;;;5048356;28;20027;-71
2023/07/16 08:41:36;;;;;;;8.02;3.42;;;23.10;99.90;;;;;;5053578;28;20036;-71
2023/07/16 08:44:03;;;;;;;5.43;3.05;;;23.00;99.90;;;;;;5031737;28;20542;-71
2023/07/16 08:46:29;;;;;;;9.30;4.85;;;23.00;99.90;;;;;;5032800;28;20051;-73
2023/07/16 08:48:57;;;;;;;10.50;4.20;;;22.90;99.90;;;;;;5022572;28;20107;-73
2023/07/16 08:51:25;;;;;;;6.40;3.67;;;22.80;99.90;;;;;;5049824;28;20120;-72
2023/07/16 08:53:51;;;;;;;9.65;5.80;;;22.80;99.90;;;;;;5049708;28;20430;-72
2023/07/16 08:56:18;;;;;;;7.90;3.70;;;23.10;99.90;;;;;;5039724;28;20035;-72
2023/07/16 08:58:45;;;;;;;12.63;4.95;;;23.30;99.90;;;;;;5047759;28;20036;-74
2023/07/16 09:01:12;;;;;;;9.57;4.65;;;23.40;99.90;;;;;;5037714;28;20039;-71
2023/07/16 09:03:38;;;;;;;7.07;3.85;;;23.40;99.90;;;;;;5046836;28;20024;-72
2023/07/16 09:06:05;;;;;;;4.88;3.05;;;23.50;99.90;;;;;;5028971;28;20040;-72
2023/07/16 09:08:31;;;;;;;6.03;3.45;;;23.60;99.90;;;;;;5038369;28;20576;-69
2023/07/16 09:10:59;;;;;;;8.10;3.92;;;23.80;99.90;;;;;;5045610;28;20132;-73
2023/07/16 09:13:26;;;;;;;7.72;3.78;;;23.90;99.90;;;;;;5027968;28;20182;-73
2023/07/16 09:15:55;;;;;;;6.70;3.20;;;24.00;99.90;;;;;;5036707;28;21770;-70
2023/07/16 09:18:25;;;;;;;4.05;2.75;;;24.10;99.90;;;;;;5048237;28;20051;-72
2023/07/16 09:21:02;;;;;;;9.27;3.80;;;24.40;99.90;;;;;;5037738;28;20773;-71
2023/07/16 09:23:30;;;;;;;7.80;3.15;;;24.70;99.90;;;;;;5047413;28;20034;-71
2023/07/16 09:25:57;;;;;;;4.90;2.70;;;24.80;99.90;;;;;;5044784;28;20024;-71
2023/07/16 09:28:23;;;;;;;7.68;3.22;;;25.00;99.90;;;;;;5036158;28;20051;-70
2023/07/16 09:30:53;;;;;;;6.80;2.95;;;25.10;99.90;;;;;;5025515;28;20049;-71
2023/07/16 09:33:22;;;;;;;5.38;2.83;;;25.10;99.50;;;;;;5045053;28;20040;-71
2023/07/16 09:35:49;;;;;;;5.32;3.03;;;25.10;99.50;;;;;;5048153;28;20028;-72
2023/07/16 09:38:17;;;;;;;11.80;3.22;;;25.30;99.50;;;;;;5034058;28;20040;-72
2023/07/16 09:40:44;;;;;;;4.03;2.20;;;25.30;99.10;;;;;;5069573;28;20039;-71
2023/07/16 09:43:12;;;;;;;13.45;3.17;;;25.20;98.60;;;;;;5067475;28;20036;-72
2023/07/16 09:45:38;;;;;;;6.35;2.63;;;24.90;98.30;;;;;;5042677;28;20044;-70
2023/07/16 09:48:05;;;;;;;7.18;3.22;;;24.50;98.50;;;;;;5044326;28;20634;-70
2023/07/16 09:50:34;;;;;;;6.05;3.17;;;24.10;98.50;;;;;;5039315;28;20037;-72
2023/07/16 09:53:04;;;;;;;9.07;3.40;;;23.80;98.80;;;;;;5048774;28;20024;-72
2023/07/16 09:55:33;;;;;;;5.78;3.53;;;23.60;99.00;;;;;;5047225;28;20043;-71
2023/07/16 09:58:03;;;;;;;5.28;2.63;;;23.40;99.20;;;;;;5053046;28;20728;-71
2023/07/16 10:00:32;;;;;;;5.70;3.72;;;23.30;99.40;;;;;;5047857;28;20029;-71
2023/07/16 10:02:59;;;;;;;6.43;3.20;;;23.40;99.70;;;;;;5045685;28;20043;-72
2023/07/16 10:05:27;;;;;;;4.88;3.03;;;23.40;99.60;;;;;;5045074;28;20718;-70
2023/07/16 10:07:58;;;;;;;9.88;3.45;;;23.50;99.60;;;;;;5044122;28;20684;-71
2023/07/16 10:10:39;;;;;;;6.55;3.35;;;23.80;99.50;;;;;;5042101;28;20032;-71
2023/07/16 10:13:07;;;;;;;4.65;2.85;;;24.10;99.20;;;;;;5047332;28;20447;-71
2023/07/16 10:15:34;;;;;;;4.70;2.85;;;24.30;99.10;;;;;;5045326;28;20040;-70
2023/07/16 10:18:00;;;;;;;4.45;2.78;;;24.60;98.80;;;;;;5053601;28;20028;-70
2023/07/16 10:20:34;;;;;;;4.68;2.28;;;24.80;98.50;;;;;;5049726;28;20039;-71
2023/07/16 10:23:14;;;;;;;6.05;3.28;;;24.90;98.30;;;;;;5047622;28;20055;-70
2023/07/16 10:26:07;;;;;;;7.72;3.45;;;25.00;97.90;;;;;;5043242;28;20040;-75
2023/07/16 10:28:34;;;;;;;6.60;3.13;;;25.10;98.00;;;;;;5039091;28;20039;-72
2023/07/16 10:31:01;;;;;;;7.18;3.28;;;25.10;97.40;;;;;;5042738;28;20031;-72
2023/07/16 10:33:27;;;;;;;6.53;2.72;;;24.90;97.20;;;;;;5047948;28;20032;-72
2023/07/16 10:35:57;;;;;;;6.32;3.10;;;24.60;97.10;;;;;;5059590;28;20020;-72
2023/07/16 10:38:24;;;;;;;7.38;3.60;;;24.40;97.50;;;;;;5047401;28;20044;-72
2023/07/16 10:40:50;;;;;;;9.68;3.25;;;24.30;97.50;;;;;;5052531;28;20024;-72
2023/07/16 10:43:16;;;;;;;5.93;2.95;;;24.20;97.50;;;;;;5018636;28;21615;-72
2023/07/16 10:45:45;;;;;;;4.93;2.20;;;24.20;97.60;;;;;;5028362;28;20059;-72
2023/07/16 10:48:11;;;;;;;9.32;3.53;;;24.30;97.70;;;;;;5056415;28;21422;-74
2023/07/16 10:50:38;;;;;;;4.78;2.85;;;24.30;97.80;;;;;;5039149;28;20721;-73
2023/07/16 10:53:04;;;;;;;5.72;3.00;;;24.30;97.80;;;;;;5046237;28;20043;-73
2023/07/16 10:55:37;;;;;;;4.93;2.22;;;24.30;97.60;;;;;;5029657;28;20494;-72
2023/07/16 10:58:06;;;;;;;5.50;2.33;;;24.20;97.50;;;;;;5050207;28;20506;-72
2023/07/16 11:00:36;;;;;;;5.15;2.58;;;24.20;97.50;;;;;;5050686;28;20043;-72
2023/07/16 11:03:02;;;;;;;6.80;2.55;;;24.50;97.50;;;;;;5055925;28;20045;-72
2023/07/16 11:05:29;;;;;;;7.80;2.85;;;24.70;97.50;;;;;;5048926;28;20975;-72
2023/07/16 11:07:55;;;;;;;6.88;2.60;;;24.70;97.10;;;;;;5045169;28;20040;-73
2023/07/16 11:10:23;;;;;;;6.93;4.05;;;24.50;97.00;;;;;;5058459;28;20047;-72
2023/07/16 11:12:55;;;;;;;4.65;2.50;;;24.40;97.00;;;;;;5049785;28;20035;-75
2023/07/16 11:15:34;;;;;;;5.18;2.45;;;24.30;97.00;;;;;;5031275;28;20043;-72
2023/07/16 11:18:02;;;;;;;5.15;2.63;;;24.10;97.10;;;;;;5034553;28;20048;-73
2023/07/16 11:20:29;;;;;;;3.55;2.30;;;23.90;97.30;;;;;;5054562;28;21353;-72
2023/07/16 11:22:58;;;;;;;6.78;3.53;;;23.70;97.50;;;;;;5060314;28;20039;-72
2023/07/16 11:25:25;;;;;;;4.40;2.72;;;23.60;97.60;;;;;;5050016;28;20051;-72
2023/07/16 11:27:56;;;;;;;7.07;3.28;;;23.50;97.80;;;;;;5046798;28;20047;-73
2023/07/16 11:30:24;;;;;;;9.80;3.78;;;23.50;98.00;;;;;;5058065;28;20028;-73
2023/07/16 11:32:50;;;;;;;5.15;2.55;;;23.70;98.00;;;;;;5048585;28;20070;-73
2023/07/16 11:35:19;;;;;;;4.30;2.42;;;23.90;97.90;;;;;;5050030;28;20032;-72
2023/07/16 11:37:47;;;;;;;4.07;2.53;;;24.00;97.70;;;;;;5036040;28;20467;-73
2023/07/16 11:40:18;;;;;;;4.95;2.53;;;24.10;97.60;;;;;;5046866;28;20051;-72
2023/07/16 11:42:45;;;;;;;5.45;2.70;;;24.30;97.80;;;;;;5060848;28;20804;-72
2023/07/16 11:45:26;;;;;;;5.53;3.10;;;24.70;97.40;;;;;;5055163;28;20044;-73
2023/07/16 11:47:52;;;;;;;5.22;2.72;;;24.90;96.80;;;;;;5032976;28;20035;-72
2023/07/16 11:50:19;;;;;;;8.23;2.60;;;24.90;96.50;;;;;;5041241;28;20039;-73
2023/07/16 11:52:53;;;;;;;7.78;2.67;;;24.70;96.80;;;;;;5050996;28;20020;-72
2023/07/16 11:55:20;;;;;;;5.65;3.00;;;24.50;96.90;;;;;;5051847;28;20359;-72
2023/07/16 11:57:46;;;;;;;7.57;2.97;;;24.20;97.10;;;;;;5052750;28;20036;-72
2023/07/16 12:00:12;;;;;;;4.50;3.22;;;24.00;97.30;;;;;;5050583;28;20039;-72
2023/07/16 12:02:39;;;;;;;6.30;2.58;;;23.70;97.80;;;;;;5057601;28;20036;-72
2023/07/16 12:05:06;;;;;;;5.25;3.00;;;23.50;98.60;;;;;;5039703;28;20039;-72
2023/07/16 12:07:35;;;;;;;7.30;3.25;;;23.50;99.10;;;;;;5064554;28;20048;-73
2023/07/16 12:10:03;;;;;;;9.52;3.90;;;23.60;99.20;;;;;;5041584;28;20071;-73
2023/07/16 12:12:30;;;;;;;5.80;2.67;;;24.30;99.10;;;;;;5051140;28;20028;-73
2023/07/16 12:14:56;;;;;;;7.80;2.97;;;24.80;98.50;;;;;;5050320;28;20409;-74
2023/07/16 12:17:23;;;;;;;4.53;2.88;;;25.30;98.20;;;;;;5047945;28;20035;-72
2023/07/16 12:19:49;;;;;;;5.18;2.92;;;25.60;97.50;;;;;;5048171;28;22418;-72
2023/07/16 12:22:18;;;;;;;5.40;2.67;;;25.60;96.90;;;;;;5058463;28;20036;-79
2023/07/16 12:24:46;;;;;;;5.85;2.97;;;25.40;96.70;;;;;;5029027;28;20021;-76
2023/07/16 12:27:13;;;;;;;7.05;3.95;;;25.10;96.90;;;;;;5033495;28;20498;-72
2023/07/16 12:29:39;;;;;;;6.18;2.92;;;24.90;97.20;;;;;;5041273;28;20044;-73
2023/07/16 12:32:06;;;;;;;5.68;2.80;;;24.70;97.60;;;;;;5051252;28;20965;-73
2023/07/16 12:34:32;;;;;;;7.80;3.03;;;24.60;97.70;;;;;;5048336;28;20042;-73
2023/07/16 12:36:59;;;;;;;3.58;2.05;;;24.80;97.80;;;;;;5048611;28;20036;-73
2023/07/16 12:39:25;;;;;;;6.85;3.17;;;25.40;97.70;;;;;;5038556;28;20043;-72
2023/07/16 12:41:51;;;;;;;7.75;3.30;;;25.90;96.90;;;;;;5038522;28;20032;-72
2023/07/16 12:44:18;;;;;;;9.57;2.92;;;26.40;96.20;;;;;;5059519;28;20347;-72
2023/07/16 12:46:44;;;;;;;4.97;2.63;;;27.20;95.70;;;;;;5056952;28;20577;-72